CheckWX is a tool to help pilots better visualize weather data.  It is not intended as a substitute for an official pre-flight weather briefing.

20:31:40 UTC

KSKX METAR
Taos Regional Airport
Taos, New Mexico, USA
Current

36 mins ago

KSKX 181956Z AUTO 22007KT 200V300 10SM SCT037 OVC047 M02/M08 A2992 RMK AO2 UPB02E12 SLP158 P0000 T10171083 FZRANO $
Observed
Feb-18 @ 19:56 UTC
Wind
  • 220° at 7 KTS
Visibility
10 SM
Flight Rules
VFR
Cloud Levels
  • Scattered at 3,700' AGL
  • Overcast at 4,700' AGL
Temperature
-2°C / 28°F
Dewpoint
-8°C / 18°F
Humidity
64%
Altimeter
29.92" Hg
Pressure
1015.8 hPa
Current Rain
0.01"
Previous

2 hours ago

KSKX 181856Z AUTO 20007KT 170V230 10SM BKN041 OVC048 M02/M09 A2995 RMK AO2 SLP167 T10171089 FZRANO $
Observed
Feb-18 @ 18:56 UTC
Wind
  • 200° at 7 KTS
Visibility
10 SM
Flight Rules
VFR
Cloud Levels
  • Broken at 4,100' AGL
  • Overcast at 4,800' AGL
Temperature
-2°C / 28°F
Dewpoint
-9°C / 16°F
Humidity
59%
Altimeter
29.95" Hg
Pressure
1016.7 hPa
Previous

3 hours ago

KSKX 181756Z AUTO 16004KT 10SM BKN042 BKN050 M02/M11 A2997 RMK AO2 SLP176 60000 T10221106 10017 21139 50001 FZRANO $
Observed
Feb-18 @ 17:56 UTC
Wind
  • 160° at 4 KTS
Visibility
10 SM
Flight Rules
VFR
Cloud Levels
  • Broken at 4,200' AGL
  • Broken at 5,000' AGL
Temperature
-2°C / 28°F
Dewpoint
-11°C / 12°F
Humidity
51%
Altimeter
29.97" Hg
Pressure
1017.6 hPa